createdAt,value
2022-10-17T00:01:09.686Z,23.86
2022-10-17T00:06:15.899Z,23.84
2022-10-17T00:11:21.874Z,23.81
2022-10-17T00:16:25.805Z,23.78
2022-10-17T00:21:28.438Z,23.75
2022-10-17T00:26:32.685Z,23.72
2022-10-17T00:31:35.780Z,23.69
2022-10-17T00:36:38.614Z,23.65
2022-10-17T00:41:42.638Z,23.61
2022-10-17T00:46:45.287Z,23.59
2022-10-17T00:51:51.851Z,23.56
2022-10-17T00:56:56.474Z,23.52
2022-10-17T01:02:04.371Z,23.49
2022-10-17T01:07:07.016Z,23.45
2022-10-17T01:12:20.593Z,23.43
2022-10-17T01:17:34.040Z,23.41
2022-10-17T01:22:42.991Z,23.37
2022-10-17T01:28:15.063Z,23.37
2022-10-17T01:33:29.486Z,23.35
2022-10-17T01:38:37.569Z,23.32
2022-10-17T01:43:45.105Z,23.29
2022-10-17T01:48:49.239Z,23.26
2022-10-17T01:53:57.981Z,23.25
2022-10-17T01:59:06.002Z,23.22
2022-10-17T02:04:11.839Z,23.19
2022-10-17T02:09:20.216Z,23.17
2022-10-17T02:14:34.094Z,23.16
2022-10-17T02:19:49.002Z,23.14
2022-10-17T02:25:01.492Z,23.12
2022-10-17T02:30:10.219Z,23.10
2022-10-17T02:35:16.615Z,23.09
2022-10-17T02:40:22.831Z,23.06
2022-10-17T02:45:29.694Z,23.05
2022-10-17T02:50:44.282Z,23.04
2022-10-17T02:55:54.613Z,23.02
2022-10-17T03:00:57.774Z,22.97
2022-10-17T03:06:01.866Z,22.95
2022-10-17T03:11:04.647Z,22.93
2022-10-17T03:16:08.815Z,22.90
2022-10-17T03:21:13.602Z,22.89
2022-10-17T03:26:16.598Z,22.87
2022-10-17T03:31:19.283Z,22.84
2022-10-17T03:36:24.374Z,22.84
2022-10-17T03:41:27.253Z,22.82
2022-10-17T03:46:30.392Z,22.78
2022-10-17T03:51:37.134Z,22.78
2022-10-17T03:56:44.997Z,22.76
2022-10-17T04:01:51.305Z,22.73
2022-10-17T04:06:56.310Z,22.73
2022-10-17T04:11:59.065Z,22.70
2022-10-17T04:17:01.841Z,22.68
2022-10-17T04:22:08.438Z,22.68
2022-10-17T04:27:13.675Z,22.65
2022-10-17T04:32:20.404Z,22.63
2022-10-17T04:37:33.329Z,22.61
2022-10-17T04:42:41.627Z,22.61
2022-10-17T04:47:46.307Z,22.60
2022-10-17T04:52:50.378Z,22.58
2022-10-17T04:57:53.097Z,22.56
2022-10-17T05:02:56.985Z,22.55
2022-10-17T05:08:01.042Z,22.53
2022-10-17T05:13:08.555Z,22.53
2022-10-17T05:18:11.705Z,22.52
2022-10-17T05:23:18.443Z,22.50
2022-10-17T05:28:21.269Z,22.49
2022-10-17T05:33:24.384Z,22.48
2022-10-17T05:38:29.159Z,22.46
2022-10-17T05:43:33.218Z,22.47
2022-10-17T05:48:36.357Z,22.45
2022-10-17T05:53:41.720Z,22.44
2022-10-17T05:58:53.372Z,22.43
2022-10-17T06:04:13.548Z,22.43
2022-10-17T06:09:18.173Z,22.44
2022-10-17T06:14:23.936Z,22.43
2022-10-17T06:19:31.315Z,22.44
2022-10-17T06:24:35.436Z,22.43
2022-10-17T06:29:40.396Z,22.44
2022-10-17T06:34:43.099Z,22.44
2022-10-17T06:39:47.899Z,22.46
2022-10-17T06:44:54.705Z,22.46
2022-10-17T06:49:57.431Z,22.46
2022-10-17T06:55:27.704Z,22.47
2022-10-17T07:00:56.385Z,22.47
2022-10-17T07:06:01.481Z,22.25
2022-10-17T07:11:11.430Z,22.08
2022-10-17T07:16:15.517Z,21.96
2022-10-17T07:21:19.715Z,21.85
2022-10-17T07:26:23.888Z,21.78
2022-10-17T07:31:26.661Z,21.67
2022-10-17T07:36:29.988Z,21.59
2022-10-17T07:41:35.497Z,21.55
2022-10-17T07:46:39.914Z,21.51
2022-10-17T07:51:43.266Z,21.49
2022-10-17T07:56:50.653Z,21.47
2022-10-17T08:01:56.483Z,21.43
2022-10-17T08:07:11.656Z,21.42
2022-10-17T08:12:24.322Z,21.43
2022-10-17T08:17:26.957Z,21.38
2022-10-17T08:22:29.976Z,21.38
2022-10-17T08:27:34.955Z,21.42
2022-10-17T08:32:37.578Z,21.40
2022-10-17T08:37:40.156Z,21.41
2022-10-17T08:43:01.236Z,21.43
2022-10-17T08:48:09.407Z,21.42
2022-10-17T08:53:20.008Z,21.44
2022-10-17T08:58:26.185Z,21.51
2022-10-17T09:03:57.578Z,21.59
2022-10-17T09:09:16.769Z,21.65
2022-10-17T09:14:41.264Z,21.72
2022-10-17T09:19:50.104Z,21.76
2022-10-17T09:24:57.045Z,21.78
2022-10-17T09:30:40.134Z,21.82
2022-10-17T09:35:42.943Z,21.85
2022-10-17T09:40:47.176Z,21.88
2022-10-17T09:46:02.479Z,21.90
2022-10-17T09:51:15.090Z,21.95
2022-10-17T09:56:28.297Z,21.96
2022-10-17T10:01:34.920Z,21.99
2022-10-17T10:06:38.008Z,22.02
2022-10-17T10:11:48.867Z,22.05
2022-10-17T10:16:54.562Z,22.10
2022-10-17T10:21:58.952Z,22.19
2022-10-17T10:27:04.064Z,22.26
2022-10-17T10:32:19.755Z,22.30
2022-10-17T10:37:24.454Z,22.35
2022-10-17T10:42:30.607Z,22.40
2022-10-17T10:47:34.985Z,22.44
2022-10-17T10:52:44.756Z,22.47
2022-10-17T10:57:50.704Z,22.52
2022-10-17T11:03:03.976Z,22.58
2022-10-17T11:08:16.256Z,22.62
2022-10-17T11:13:24.405Z,22.65
2022-10-17T11:18:34.405Z,22.69
2022-10-17T11:23:42.462Z,22.74
2022-10-17T11:28:45.135Z,22.75
2022-10-17T11:33:53.188Z,22.80
2022-10-17T11:39:01.216Z,22.86
2022-10-17T11:44:08.668Z,22.89
2022-10-17T11:49:20.381Z,22.93
2022-10-17T11:54:27.725Z,22.97
2022-10-17T11:59:55.033Z,23.02
2022-10-17T12:05:05.657Z,23.01
2022-10-17T12:10:21.031Z,23.05
2022-10-17T12:15:32.472Z,23.24
2022-10-17T12:20:38.108Z,23.37
2022-10-17T12:25:50.694Z,23.46
2022-10-17T12:30:57.342Z,23.49
2022-10-17T12:36:43.039Z,23.53
2022-10-17T12:41:56.203Z,23.52
2022-10-17T12:46:59.996Z,23.55
2022-10-17T12:52:16.061Z,23.55
2022-10-17T12:57:24.983Z,23.59
2022-10-17T13:02:31.459Z,23.57
2022-10-17T13:07:35.568Z,23.64
2022-10-17T13:12:41.309Z,23.70
2022-10-17T13:17:44.201Z,23.78
2022-10-17T13:22:47.021Z,23.79
2022-10-17T13:27:53.667Z,23.83
2022-10-17T13:32:56.969Z,23.95
2022-10-17T13:38:03.399Z,24.01
2022-10-17T13:43:16.367Z,24.07
2022-10-17T13:48:22.714Z,24.10
2022-10-17T13:53:32.750Z,23.98
2022-10-17T13:58:43.488Z,23.94
2022-10-17T14:03:48.991Z,23.95
2022-10-17T14:09:00.517Z,23.96
2022-10-17T14:14:07.174Z,23.95
2022-10-17T14:19:24.168Z,23.92
2022-10-17T14:24:31.532Z,23.91
2022-10-17T14:29:54.270Z,23.87
2022-10-17T14:35:17.779Z,23.90
2022-10-17T14:40:24.789Z,23.90
2022-10-17T14:45:31.479Z,23.89
2022-10-17T14:50:36.206Z,23.94
2022-10-17T14:55:41.332Z,24.00
2022-10-17T15:00:45.447Z,24.05
2022-10-17T15:05:48.486Z,24.09
2022-10-17T15:10:52.679Z,24.13
2022-10-17T15:15:56.713Z,24.17
2022-10-17T15:21:04.969Z,24.21
2022-10-17T15:26:17.461Z,24.25
2022-10-17T15:31:24.282Z,24.24
2022-10-17T15:36:28.913Z,24.22
2022-10-17T15:41:33.159Z,24.20
2022-10-17T15:46:37.363Z,24.17
2022-10-17T15:51:40.474Z,24.14
2022-10-17T15:56:44.398Z,24.11
2022-10-17T16:01:49.159Z,24.04
2022-10-17T16:06:51.769Z,23.99
2022-10-17T16:11:54.480Z,23.97
2022-10-17T16:16:59.072Z,23.92
2022-10-17T16:22:04.695Z,23.90
2022-10-17T16:27:07.470Z,23.91
2022-10-17T16:32:11.708Z,23.90
2022-10-17T16:37:14.360Z,23.90
2022-10-17T16:42:17.005Z,23.91
2022-10-17T16:47:21.064Z,23.94
2022-10-17T16:52:23.993Z,23.98
2022-10-17T16:57:26.769Z,24.01
2022-10-17T17:02:31.059Z,24.04
2022-10-17T17:07:34.194Z,24.07
2022-10-17T17:12:37.703Z,24.10
2022-10-17T17:17:52.393Z,24.14
2022-10-17T17:22:57.557Z,24.17
2022-10-17T17:28:00.292Z,24.19
2022-10-17T17:33:04.547Z,24.24
2022-10-17T17:38:07.514Z,24.26
2022-10-17T17:43:10.269Z,24.28
2022-10-17T17:48:14.863Z,24.29
2022-10-17T17:53:18.927Z,24.33
2022-10-17T17:58:21.526Z,24.36
2022-10-17T18:03:26.328Z,24.38
2022-10-17T18:08:29.146Z,24.40
2022-10-17T18:13:32.280Z,24.41
2022-10-17T18:18:37.243Z,24.42
2022-10-17T18:23:40.317Z,24.46
2022-10-17T18:28:44.470Z,24.47
2022-10-17T18:33:48.596Z,24.54
2022-10-17T18:38:51.349Z,24.53
2022-10-17T18:43:56.033Z,24.55
2022-10-17T18:49:00.152Z,24.56
2022-10-17T18:54:03.598Z,24.59
2022-10-17T18:59:06.211Z,24.60
2022-10-17T19:04:10.944Z,24.60
2022-10-17T19:09:15.292Z,24.62
2022-10-17T19:14:18.022Z,24.65
2022-10-17T19:19:24.005Z,24.67
2022-10-17T19:24:28.652Z,24.69
2022-10-17T19:29:32.961Z,24.69
2022-10-17T19:34:37.558Z,24.69
2022-10-17T19:39:40.363Z,24.72
2022-10-17T19:44:43.045Z,24.75
2022-10-17T19:49:49.979Z,24.73
2022-10-17T19:54:53.035Z,24.78
2022-10-17T19:59:56.138Z,24.79
2022-10-17T20:05:17.640Z,24.83
2022-10-17T20:10:21.500Z,24.85
2022-10-17T20:15:24.154Z,24.84
2022-10-17T20:20:29.163Z,24.88
2022-10-17T20:25:33.306Z,24.88
2022-10-17T20:30:36.430Z,24.90
2022-10-17T20:35:43.282Z,24.89
2022-10-17T20:40:46.410Z,24.90
2022-10-17T20:45:51.409Z,24.92
2022-10-17T20:50:56.294Z,24.92
2022-10-17T20:56:03.755Z,24.90
2022-10-17T21:01:08.115Z,24.94
2022-10-17T21:06:12.425Z,24.92
2022-10-17T21:11:17.315Z,24.96
2022-10-17T21:16:20.680Z,24.95
2022-10-17T21:21:27.464Z,24.97
2022-10-17T21:26:32.644Z,24.98
2022-10-17T21:31:36.828Z,24.98
2022-10-17T21:36:41.528Z,25.05
2022-10-17T21:41:45.243Z,25.12
2022-10-17T21:46:48.683Z,25.11
2022-10-17T21:51:53.914Z,25.08
2022-10-17T21:56:56.548Z,25.05
2022-10-17T22:01:59.308Z,24.98
2022-10-17T22:07:03.346Z,24.93
2022-10-17T22:12:06.201Z,24.90
2022-10-17T22:17:08.825Z,24.84
2022-10-17T22:22:12.866Z,24.80
2022-10-17T22:27:15.682Z,24.74
2022-10-17T22:32:21.548Z,24.71
2022-10-17T22:37:26.591Z,24.67
2022-10-17T22:42:31.275Z,24.65
2022-10-17T22:47:33.989Z,24.60
2022-10-17T22:52:38.013Z,24.56
2022-10-17T22:57:41.365Z,24.51
2022-10-17T23:02:44.432Z,24.48
2022-10-17T23:07:48.407Z,24.45
2022-10-17T23:12:51.036Z,24.39
2022-10-17T23:17:53.765Z,24.36
2022-10-17T23:22:58.337Z,24.33
2022-10-17T23:28:01.715Z,24.28
2022-10-17T23:33:05.388Z,24.24
2022-10-17T23:38:09.749Z,24.21
2022-10-17T23:43:12.408Z,24.18
2022-10-17T23:48:15.059Z,24.15
2022-10-17T23:53:19.075Z,24.11
2022-10-17T23:58:21.744Z,24.08
